Time;durP1;ratioP1;P1;durP2;ratioP2;P2;SDS_P1;SDS_P2;PMS_P1;PMS_P2;Temp;Humidity;BMP_temperature;BMP_pressure;BME280_temperature;BME280_humidity;BME280_pressure;Samples;Min_cycle;Max_cycle;Signal;HPM_P1;HPM_P2
2021/12/16 00:02:28;;;;;;;25.13;16.60;;;6.60;99.90;;;;;;5074109;28;20048;-75
2021/12/16 00:05:24;;;;;;;31.67;19.38;;;6.60;99.90;;;;;;5057326;28;20051;-75
2021/12/16 00:08:01;;;;;;;23.55;15.25;;;6.60;99.90;;;;;;5057216;28;20093;-76
2021/12/16 00:10:37;;;;;;;30.17;17.17;;;6.50;99.90;;;;;;5056454;28;20043;-76
2021/12/16 00:29:58;;;;;;;24.55;15.70;;;6.20;99.90;;;;;;5072232;28;20063;-71
2021/12/16 00:32:46;;;;;;;31.35;16.23;;;6.10;99.90;;;;;;5054214;28;20086;-74
2021/12/16 00:35:15;;;;;;;31.30;18.08;;;6.10;99.90;;;;;;5057281;28;20403;-74
2021/12/16 00:37:41;;;;;;;32.50;18.70;;;6.10;99.90;;;;;;5073424;28;20071;-74
2021/12/16 00:40:09;;;;;;;27.58;18.20;;;6.10;99.90;;;;;;5072635;28;20040;-74
2021/12/16 00:43:00;;;;;;;21.15;14.60;;;6.10;99.90;;;;;;5073577;28;20050;-75
2021/12/16 00:45:35;;;;;;;34.00;17.35;;;6.10;99.90;;;;;;5071117;28;20653;-76
2021/12/16 00:48:19;;;;;;;24.73;14.93;;;6.10;99.90;;;;;;5073509;28;20048;-75
2021/12/16 00:56:00;;;;;;;34.90;17.75;;;6.00;99.90;;;;;;5073023;28;20060;-76
2021/12/16 00:58:38;;;;;;;28.75;19.33;;;6.00;99.90;;;;;;5056145;28;20126;-74
2021/12/16 01:01:23;;;;;;;35.10;21.45;;;6.00;99.90;;;;;;5073100;28;20048;-75
2021/12/16 01:04:19;;;;;;;37.25;22.83;;;6.00;99.90;;;;;;5056245;28;20051;-74
2021/12/16 01:34:22;;;;;;;41.03;25.70;;;6.40;99.90;;;;;;5072800;28;20044;-77
2021/12/16 01:52:32;;;;;;;50.17;27.08;;;6.60;99.90;;;;;;5073178;28;20479;-77
2021/12/16 01:55:07;;;;;;;41.22;23.35;;;6.70;99.90;;;;;;5071319;28;20041;-77
2021/12/16 01:57:39;;;;;;;37.03;23.55;;;6.70;99.90;;;;;;5072496;28;20052;-77
2021/12/16 02:00:12;;;;;;;;;;;6.70;99.90;;;;;;5072594;28;20119;-77
2021/12/16 02:02:51;;;;;;;52.83;25.80;;;6.80;99.90;;;;;;5056047;28;19920;-77
2021/12/16 02:05:35;;;;;;;41.53;24.42;;;6.90;99.90;;;;;;5072660;28;20043;-77
2021/12/16 02:10:44;;;;;;;47.58;27.88;;;6.90;99.90;;;;;;5071747;28;20044;-77
2021/12/16 02:30:42;;;;;;;32.08;22.05;;;7.10;99.90;;;;;;5071482;28;20048;-76
2021/12/16 02:32:55;;;;;;;35.90;22.92;;;7.10;99.90;;;;;;5071510;28;20048;-77
2021/12/16 02:37:54;;;;;;;35.53;22.35;;;7.20;99.90;;;;;;5072309;28;20044;-78
2021/12/16 02:40:21;;;;;;;43.60;24.83;;;7.20;99.90;;;;;;5071199;28;20549;-74
2021/12/16 02:43:01;;;;;;;38.42;25.60;;;7.20;99.90;;;;;;5071786;28;20055;-78
2021/12/16 02:48:34;;;;;;;40.70;23.70;;;7.30;99.90;;;;;;5072008;28;20063;-78
2021/12/16 02:51:10;;;;;;;36.40;24.45;;;7.30;99.90;;;;;;5054634;28;20051;-78
2021/12/16 02:53:39;;;;;;;41.55;25.48;;;7.30;99.90;;;;;;5055672;28;20093;-77
2021/12/16 02:56:05;;;;;;;39.22;23.75;;;7.30;99.90;;;;;;5051541;28;20083;-78
2021/12/16 02:58:32;;;;;;;38.60;24.10;;;7.30;99.90;;;;;;5071164;28;20044;-77
2021/12/16 03:01:13;;;;;;;45.17;25.73;;;7.30;99.90;;;;;;5075860;28;20055;-78
2021/12/16 03:03:40;;;;;;;37.53;24.00;;;7.40;99.90;;;;;;5058645;28;20051;-78
2021/12/16 03:06:09;;;;;;;31.95;23.80;;;7.30;99.90;;;;;;5059045;28;20044;-77
2021/12/16 03:08:35;;;;;;;40.25;27.20;;;7.40;99.90;;;;;;5059254;28;20066;-77
2021/12/16 03:11:15;;;;;;;43.35;28.73;;;7.50;99.90;;;;;;5070773;28;20063;-76
2021/12/16 03:13:56;;;;;;;41.28;24.83;;;7.50;99.90;;;;;;5072382;28;20531;-78
2021/12/16 03:19:20;;;;;;;38.15;25.08;;;7.50;99.90;;;;;;5092984;28;20549;-74
2021/12/16 03:21:51;;;;;;;40.55;25.50;;;7.50;99.90;;;;;;5073326;28;20373;-77
2021/12/16 03:34:41;;;;;;;37.30;26.02;;;7.50;99.90;;;;;;5088101;28;20075;-76
2021/12/16 03:37:22;;;;;;;41.65;26.25;;;7.60;99.90;;;;;;5075729;28;20052;-78
2021/12/16 03:39:50;;;;;;;38.55;26.25;;;7.60;99.90;;;;;;5056795;28;20593;-77
2021/12/16 03:42:45;;;;;;;37.33;24.48;;;7.60;99.90;;;;;;5058753;28;20135;-78
2021/12/16 03:48:15;;;;;;;37.10;24.70;;;7.60;99.90;;;;;;5075006;28;20510;-78
2021/12/16 03:50:41;;;;;;;39.97;26.83;;;7.70;99.90;;;;;;5058148;28;20040;-78
2021/12/16 03:53:08;;;;;;;39.58;26.25;;;7.60;99.90;;;;;;5074203;28;20043;-76
2021/12/16 03:55:35;;;;;;;39.92;26.20;;;7.60;99.90;;;;;;5057927;28;20123;-76
2021/12/16 03:58:01;;;;;;;42.22;25.70;;;7.60;99.90;;;;;;5074244;28;20170;-75
2021/12/16 04:00:33;;;;;;;34.50;24.77;;;7.60;99.90;;;;;;5057135;28;20122;-76
2021/12/16 04:02:59;;;;;;;39.33;26.15;;;7.70;99.90;;;;;;5074238;28;20090;-75
2021/12/16 04:05:25;;;;;;;40.78;27.35;;;7.60;99.90;;;;;;5057754;28;20135;-77
2021/12/16 04:07:51;;;;;;;41.13;26.33;;;7.70;99.90;;;;;;5056926;28;20133;-76
2021/12/16 04:10:34;;;;;;;41.58;25.60;;;7.70;99.90;;;;;;5073374;28;20078;-77
2021/12/16 04:13:02;;;;;;;41.50;26.08;;;7.70;99.90;;;;;;5057261;28;20032;-76
2021/12/16 04:15:28;;;;;;;41.38;26.58;;;7.70;99.90;;;;;;5073571;28;20154;-76
2021/12/16 04:17:54;;;;;;;40.47;26.30;;;7.70;99.90;;;;;;5057693;28;20505;-76
2021/12/16 04:20:20;;;;;;;39.05;24.15;;;7.70;99.90;;;;;;5056663;28;20040;-75
2021/12/16 04:22:47;;;;;;;38.92;26.27;;;7.70;99.90;;;;;;5074146;28;20055;-76
2021/12/16 04:25:17;;;;;;;40.70;24.52;;;7.70;99.90;;;;;;5057296;28;20507;-77
2021/12/16 04:27:44;;;;;;;41.30;25.40;;;7.70;99.90;;;;;;5073128;28;20051;-76
2021/12/16 04:30:11;;;;;;;34.30;23.48;;;7.70;99.90;;;;;;5073581;28;20068;-76
2021/12/16 04:32:37;;;;;;;34.85;24.65;;;7.70;99.90;;;;;;5073967;28;20116;-75
2021/12/16 04:35:04;;;;;;;39.88;25.52;;;7.70;99.90;;;;;;5073131;28;20127;-75
2021/12/16 04:37:29;;;;;;;37.55;23.10;;;7.80;99.90;;;;;;5056896;28;20074;-75
2021/12/16 04:39:55;;;;;;;37.25;25.00;;;7.80;99.90;;;;;;5072865;28;20492;-75
2021/12/16 04:42:25;;;;;;;34.25;23.08;;;7.80;99.90;;;;;;5073125;28;20044;-76
2021/12/16 04:44:50;;;;;;;37.65;23.50;;;7.80;99.90;;;;;;5073336;28;20054;-75
2021/12/16 04:47:16;;;;;;;38.13;24.00;;;7.80;99.90;;;;;;5073693;28;20060;-76
2021/12/16 04:49:42;;;;;;;34.63;24.20;;;7.80;99.90;;;;;;5072511;28;20119;-75
2021/12/16 04:52:14;;;;;;;39.25;26.13;;;7.90;99.90;;;;;;5073762;28;20093;-76
2021/12/16 04:54:40;;;;;;;46.33;27.02;;;7.90;99.90;;;;;;5073429;28;20040;-75
2021/12/16 04:57:06;;;;;;;42.22;25.98;;;7.90;99.90;;;;;;5072866;28;20083;-76
2021/12/16 04:59:34;;;;;;;35.33;22.58;;;7.80;99.90;;;;;;5072616;28;20044;-76
2021/12/16 05:02:10;;;;;;;31.48;22.77;;;7.90;99.90;;;;;;5073226;28;20484;-74
2021/12/16 05:04:36;;;;;;;39.92;27.40;;;7.90;99.90;;;;;;5072840;28;20056;-74
2021/12/16 05:07:04;;;;;;;43.20;25.17;;;7.90;99.90;;;;;;5072975;28;20040;-74
2021/12/16 05:12:17;;;;;;;35.97;23.52;;;7.90;99.90;;;;;;5073433;28;20055;-74
2021/12/16 05:14:45;;;;;;;35.45;24.58;;;7.90;99.90;;;;;;5073148;28;20059;-76
2021/12/16 05:17:24;;;;;;;36.95;24.10;;;7.90;99.90;;;;;;5072001;28;20055;-76
2021/12/16 05:19:51;;;;;;;46.72;26.55;;;7.90;99.90;;;;;;5072949;28;20135;-78
2021/12/16 05:25:07;;;;;;;39.83;24.63;;;7.90;99.90;;;;;;5072357;28;20126;-75
2021/12/16 05:27:32;;;;;;;39.75;25.17;;;7.90;99.90;;;;;;5072683;28;20126;-76
2021/12/16 05:29:58;;;;;;;36.80;23.92;;;7.90;99.90;;;;;;5072902;28;20903;-76
2021/12/16 05:32:27;;;;;;;37.47;23.80;;;7.90;99.90;;;;;;5056258;28;20215;-76
2021/12/16 05:34:52;;;;;;;51.20;26.92;;;8.00;99.90;;;;;;5055913;28;20130;-76
2021/12/16 05:37:18;;;;;;;33.25;24.17;;;8.00;99.90;;;;;;5055543;28;20079;-76
2021/12/16 05:39:44;;;;;;;36.45;25.00;;;7.90;99.90;;;;;;5072075;28;20036;-76
2021/12/16 05:42:10;;;;;;;37.20;25.08;;;7.90;99.90;;;;;;5055175;28;20068;-75
2021/12/16 05:44:36;;;;;;;42.40;25.25;;;7.80;99.90;;;;;;5073271;28;20086;-76
2021/12/16 05:47:02;;;;;;;39.65;23.10;;;7.80;99.90;;;;;;5071824;28;20058;-76
2021/12/16 05:49:27;;;;;;;42.85;26.58;;;7.70;99.90;;;;;;5072662;28;20072;-75
2021/12/16 05:51:53;;;;;;;46.53;25.67;;;7.60;99.90;;;;;;5055415;28;20050;-76
2021/12/16 05:54:20;;;;;;;36.67;23.88;;;7.50;99.90;;;;;;5090607;28;20051;-76
2021/12/16 05:56:47;;;;;;;44.47;26.20;;;7.50;99.90;;;;;;5072831;28;20488;-75
2021/12/16 05:59:17;;;;;;;44.75;26.27;;;7.40;99.90;;;;;;5071664;28;20385;-75
2021/12/16 06:01:44;;;;;;;41.28;24.80;;;7.40;99.90;;;;;;5072823;28;20048;-75
2021/12/16 06:04:10;;;;;;;46.22;27.60;;;7.40;99.90;;;;;;5072223;28;20040;-76
2021/12/16 06:06:36;;;;;;;47.15;27.10;;;7.30;99.90;;;;;;5072119;28;20071;-76
2021/12/16 06:09:04;;;;;;;43.08;26.13;;;7.30;99.90;;;;;;5055140;28;20140;-76
2021/12/16 06:11:31;;;;;;;38.33;23.30;;;7.30;99.90;;;;;;5072649;28;20044;-78
2021/12/16 06:28:03;;;;;;;37.47;22.40;;;7.00;99.90;;;;;;5053407;28;20517;-77
2021/12/16 06:30:32;;;;;;;37.65;21.90;;;7.00;99.90;;;;;;5055518;28;20051;-77
2021/12/16 06:32:58;;;;;;;51.95;27.25;;;7.00;99.90;;;;;;5073166;28;20044;-77
2021/12/16 06:35:24;;;;;;;53.10;26.67;;;7.00;99.90;;;;;;5058657;28;20062;-77
2021/12/16 06:37:50;;;;;;;65.35;27.98;;;7.10;99.90;;;;;;5075822;28;20032;-77
2021/12/16 06:40:17;;;;;;;45.63;25.67;;;7.10;99.90;;;;;;5059046;28;20043;-78
2021/12/16 06:42:43;;;;;;;38.40;22.55;;;7.00;99.90;;;;;;5075606;28;20049;-76
2021/12/16 06:45:17;;;;;;;56.13;24.58;;;7.00;99.90;;;;;;5059243;28;20051;-76
2021/12/16 06:47:48;;;;;;;45.85;23.48;;;7.00;99.90;;;;;;5076053;28;20052;-75
2021/12/16 06:50:25;;;;;;;54.38;25.40;;;6.90;99.90;;;;;;5058155;28;20036;-76
2021/12/16 06:52:55;;;;;;;37.42;23.60;;;6.90;99.90;;;;;;5076331;28;20044;-75
2021/12/16 06:55:34;;;;;;;40.55;21.58;;;6.80;99.90;;;;;;5074963;28;20052;-74
2021/12/16 06:58:11;;;;;;;33.80;20.23;;;6.80;99.90;;;;;;5075826;28;20051;-76
2021/12/16 07:00:42;;;;;;;50.08;22.60;;;6.70;99.90;;;;;;5055285;28;20048;-77
2021/12/16 07:03:17;;;;;;;42.50;23.33;;;6.70;99.90;;;;;;5075253;28;20044;-75
2021/12/16 07:05:44;;;;;;;52.75;24.15;;;6.60;99.90;;;;;;5075635;28;20472;-75
2021/12/16 07:08:15;;;;;;;55.63;27.33;;;6.60;99.90;;;;;;5074548;28;20122;-74
2021/12/16 07:10:45;;;;;;;53.35;27.23;;;6.50;99.90;;;;;;5075172;28;20498;-75
2021/12/16 07:13:18;;;;;;;46.20;27.50;;;6.50;99.90;;;;;;5075326;28;20089;-77
2021/12/16 07:15:48;;;;;;;78.57;30.23;;;6.50;99.90;;;;;;5055660;28;20067;-76
2021/12/16 07:18:14;;;;;;;49.70;25.45;;;6.50;99.90;;;;;;5073338;28;20074;-74
2021/12/16 07:20:40;;;;;;;118.03;34.20;;;6.50;99.90;;;;;;5073861;28;20072;-76
2021/12/16 07:23:08;;;;;;;67.72;31.60;;;6.60;99.90;;;;;;5093617;28;20036;-76
2021/12/16 07:25:35;;;;;;;51.00;27.85;;;6.60;99.90;;;;;;5074458;28;20043;-76
2021/12/16 07:28:04;;;;;;;67.35;31.35;;;6.70;99.90;;;;;;5073742;28;20051;-76
2021/12/16 07:30:30;;;;;;;89.15;31.13;;;6.70;99.90;;;;;;5074198;28;20055;-73
2021/12/16 07:32:56;;;;;;;85.00;32.10;;;6.70;99.90;;;;;;5075092;28;20056;-76
2021/12/16 07:35:25;;;;;;;163.93;37.78;;;6.80;99.90;;;;;;5074297;28;20044;-76
2021/12/16 07:37:52;;;;;;;135.70;30.45;;;6.80;99.90;;;;;;5057430;28;20050;-75
2021/12/16 07:40:22;;;;;;;95.78;29.00;;;6.90;99.90;;;;;;5074607;28;20122;-76
2021/12/16 07:43:00;;;;;;;153.98;31.30;;;7.00;99.90;;;;;;5074734;28;20499;-76
2021/12/16 07:45:27;;;;;;;160.75;33.78;;;7.00;99.90;;;;;;5072741;28;20086;-75
2021/12/16 07:47:52;;;;;;;235.70;39.15;;;7.10;99.90;;;;;;5058340;28;20453;-76
2021/12/16 07:50:19;;;;;;;113.50;28.13;;;7.10;99.90;;;;;;5074478;28;20123;-76
2021/12/16 07:52:45;;;;;;;132.73;26.98;;;7.00;99.90;;;;;;5074218;28;20373;-76
2021/12/16 07:55:14;;;;;;;86.22;24.77;;;7.10;99.90;;;;;;5057782;28;20036;-77
2021/12/16 07:57:40;;;;;;;61.58;23.63;;;7.00;99.90;;;;;;5074829;28;20445;-76
2021/12/16 08:00:13;;;;;;;126.53;23.92;;;7.00;99.90;;;;;;5073511;28;20055;-79
2021/12/16 08:02:40;;;;;;;61.50;21.38;;;7.10;99.90;;;;;;5057113;28;20043;-81
2021/12/16 08:05:07;;;;;;;81.50;21.92;;;7.00;99.90;;;;;;5057621;28;20039;-78
2021/12/16 08:07:34;;;;;;;133.73;26.42;;;7.00;99.90;;;;;;5073085;28;20071;-78
2021/12/16 08:10:00;;;;;;;78.03;17.52;;;6.90;99.90;;;;;;5057388;28;20139;-79
2021/12/16 08:12:25;;;;;;;66.30;17.15;;;6.90;99.90;;;;;;5055833;28;20417;-79
2021/12/16 08:14:54;;;;;;;52.97;18.83;;;6.80;99.90;;;;;;5073685;28;20094;-78
2021/12/16 08:17:20;;;;;;;90.35;18.38;;;6.80;99.90;;;;;;5074491;28;20072;-78
2021/12/16 08:19:46;;;;;;;89.50;22.05;;;6.90;99.90;;;;;;5056295;28;20047;-78
2021/12/16 08:22:12;;;;;;;109.82;23.98;;;6.80;99.90;;;;;;5055441;28;20047;-79
2021/12/16 08:24:38;;;;;;;44.72;18.17;;;6.80;99.90;;;;;;5074559;28;20055;-78
2021/12/16 08:27:05;;;;;;;141.43;25.75;;;6.80;99.90;;;;;;5056863;28;20028;-78
2021/12/16 08:29:31;;;;;;;75.72;20.73;;;6.80;99.90;;;;;;5051566;28;20059;-78
2021/12/16 08:31:57;;;;;;;116.10;23.67;;;6.80;99.90;;;;;;5057610;28;20059;-76
2021/12/16 08:34:25;;;;;;;160.85;28.30;;;6.80;99.90;;;;;;5073165;28;20044;-79
2021/12/16 08:36:50;;;;;;;78.10;23.73;;;6.80;99.90;;;;;;5056960;28;20040;-79
2021/12/16 08:39:17;;;;;;;103.15;20.90;;;6.80;99.90;;;;;;5057180;28;20109;-80
2021/12/16 08:41:47;;;;;;;73.50;18.55;;;6.80;99.90;;;;;;5057104;28;20044;-84
2021/12/16 08:44:13;;;;;;;86.10;18.75;;;6.90;99.90;;;;;;5066048;28;20048;-83
2021/12/16 08:46:44;;;;;;;143.30;23.42;;;6.90;99.90;;;;;;5073030;28;20101;-80
2021/12/16 08:49:10;;;;;;;117.28;19.50;;;6.90;99.90;;;;;;5073000;28;20048;-81
2021/12/16 08:51:42;;;;;;;99.22;18.00;;;6.90;99.90;;;;;;5056804;28;20044;-78
2021/12/16 08:54:08;;;;;;;102.07;16.13;;;6.90;99.90;;;;;;5071866;28;20066;-78
2021/12/16 08:56:34;;;;;;;70.88;15.95;;;6.90;99.90;;;;;;5062967;28;20032;-80
2021/12/16 08:59:02;;;;;;;57.92;15.05;;;6.90;99.90;;;;;;5070771;28;20090;-80
2021/12/16 09:01:31;;;;;;;104.13;16.42;;;6.90;99.90;;;;;;5071111;28;20407;-78
2021/12/16 09:03:58;;;;;;;76.45;15.75;;;6.90;99.90;;;;;;5072008;28;20102;-79
2021/12/16 09:06:24;;;;;;;88.95;18.45;;;6.90;99.90;;;;;;5056765;28;20540;-78
2021/12/16 09:08:51;;;;;;;138.50;22.45;;;6.90;99.90;;;;;;5072319;28;20075;-74
2021/12/16 09:11:21;;;;;;;85.35;17.77;;;6.90;99.90;;;;;;5071208;28;20047;-80
2021/12/16 09:13:48;;;;;;;68.13;15.88;;;6.90;99.90;;;;;;5054261;28;20493;-79
2021/12/16 09:16:17;;;;;;;97.60;17.88;;;6.90;99.90;;;;;;5055221;28;20488;-76
2021/12/16 09:18:44;;;;;;;103.55;20.95;;;7.00;99.90;;;;;;5072116;28;20040;-77
2021/12/16 09:21:21;;;;;;;42.33;14.32;;;7.00;99.90;;;;;;5072888;28;20094;-79
2021/12/16 09:23:48;;;;;;;67.88;15.75;;;7.10;99.90;;;;;;5056127;28;20052;-80
2021/12/16 09:26:15;;;;;;;56.70;13.07;;;7.20;99.90;;;;;;5073546;28;20488;-76
2021/12/16 09:28:41;;;;;;;49.70;13.93;;;7.20;99.90;;;;;;5056478;28;20135;-80
2021/12/16 09:31:11;;;;;;;66.97;13.02;;;7.20;99.90;;;;;;5072665;28;20519;-79
2021/12/16 09:33:48;;;;;;;73.28;14.57;;;7.20;99.90;;;;;;5073430;28;20131;-79
2021/12/16 09:36:16;;;;;;;101.60;16.95;;;7.20;99.90;;;;;;5056714;28;20055;-80
2021/12/16 09:38:43;;;;;;;98.95;17.88;;;7.20;99.90;;;;;;5055539;28;20049;-79
2021/12/16 09:41:09;;;;;;;79.85;14.32;;;7.20;99.90;;;;;;5072100;28;20104;-80
2021/12/16 09:43:40;;;;;;;62.33;13.75;;;7.20;99.90;;;;;;5073274;28;20044;-80
2021/12/16 09:46:11;;;;;;;68.30;13.63;;;7.20;99.90;;;;;;5055609;28;20047;-75
2021/12/16 09:48:38;;;;;;;34.97;13.77;;;7.30;99.90;;;;;;5056605;28;20105;-79
2021/12/16 09:51:06;;;;;;;85.30;16.48;;;7.30;99.90;;;;;;5072677;28;20480;-77
2021/12/16 09:53:34;;;;;;;111.38;18.60;;;7.30;99.90;;;;;;5056232;28;20055;-80
2021/12/16 09:56:01;;;;;;;74.15;16.27;;;7.30;99.90;;;;;;5072994;28;20047;-75
2021/12/16 09:58:35;;;;;;;83.72;15.52;;;7.40;99.90;;;;;;5072207;28;20082;-79
2021/12/16 10:01:02;;;;;;;114.72;18.38;;;7.40;99.90;;;;;;5073221;28;20484;-76
2021/12/16 10:03:29;;;;;;;63.00;13.38;;;7.50;99.90;;;;;;5056059;28;20090;-78
2021/12/16 10:05:55;;;;;;;75.80;13.18;;;7.50;99.90;;;;;;5072220;28;20075;-79
2021/12/16 10:08:21;;;;;;;45.22;11.80;;;7.50;99.90;;;;;;5059433;28;20127;-76
2021/12/16 10:10:46;;;;;;;66.60;13.98;;;7.50;99.90;;;;;;5076985;28;20503;-79
2021/12/16 10:13:19;;;;;;;59.70;13.77;;;7.50;99.90;;;;;;5074829;28;20057;-80
2021/12/16 10:18:31;;;;;;;52.13;13.60;;;7.70;99.90;;;;;;5034167;28;20150;-75
2021/12/16 10:20:59;;;;;;;75.28;12.40;;;7.60;99.90;;;;;;5076978;28;20540;-79
2021/12/16 10:23:32;;;;;;;113.47;17.30;;;7.70;99.90;;;;;;5076668;28;20087;-80
2021/12/16 10:25:59;;;;;;;;;;;7.80;99.90;;;;;;5059782;28;20101;-80
2021/12/16 10:28:30;;;;;;;63.42;12.77;;;7.80;99.90;;;;;;5059868;28;19970;-80
2021/12/16 10:31:12;;;;;;;48.15;14.05;;;7.80;99.90;;;;;;5057819;28;20044;-79
2021/12/16 10:33:45;;;;;;;52.10;12.80;;;7.90;99.90;;;;;;5050685;28;20040;-76
2021/12/16 10:36:21;;;;;;;82.55;13.88;;;7.90;99.90;;;;;;5074756;28;20629;-80
2021/12/16 10:38:52;;;;;;;47.25;12.82;;;7.90;99.90;;;;;;5074561;28;20058;-80
2021/12/16 10:41:32;;;;;;;49.58;11.60;;;8.00;99.90;;;;;;5063025;28;20041;-81
2021/12/16 10:44:05;;;;;;;41.90;12.27;;;7.90;99.90;;;;;;5064295;28;20094;-81
2021/12/16 10:46:34;;;;;;;68.63;14.80;;;8.00;99.90;;;;;;5074429;28;20148;-76
2021/12/16 10:49:10;;;;;;;46.90;13.18;;;8.00;99.90;;;;;;5048626;28;20105;-75
2021/12/16 10:51:42;;;;;;;59.50;12.20;;;8.10;99.90;;;;;;5076529;28;20148;-80
2021/12/16 10:54:13;;;;;;;70.68;14.25;;;8.20;99.90;;;;;;5075627;28;20385;-80
2021/12/16 10:57:13;;;;;;;40.08;11.80;;;8.20;99.90;;;;;;5058993;28;20093;-80
2021/12/16 10:59:57;;;;;;;87.85;13.55;;;8.30;99.90;;;;;;5052726;28;20056;-81
2021/12/16 11:02:27;;;;;;;54.35;13.30;;;8.30;99.90;;;;;;5058515;28;20059;-80
2021/12/16 11:04:56;;;;;;;73.47;13.15;;;8.40;99.90;;;;;;5075863;28;20044;-80
2021/12/16 11:07:43;;;;;;;57.47;11.35;;;8.50;99.90;;;;;;5051935;28;20048;-80
2021/12/16 11:10:18;;;;;;;116.47;15.57;;;8.60;99.90;;;;;;5069600;28;20050;-76
2021/12/16 11:13:09;;;;;;;87.38;13.23;;;8.60;99.90;;;;;;5074146;28;20044;-77
2021/12/16 11:15:41;;;;;;;61.95;12.30;;;8.60;99.90;;;;;;5075133;28;20050;-81
2021/12/16 11:18:21;;;;;;;51.05;11.05;;;8.60;99.90;;;;;;5058294;28;20063;-80
2021/12/16 11:20:52;;;;;;;57.75;12.10;;;8.50;99.90;;;;;;5058663;28;20404;-80
2021/12/16 11:23:23;;;;;;;32.40;12.23;;;8.50;99.90;;;;;;5075408;28;20040;-80
2021/12/16 11:26:20;;;;;;;64.13;13.43;;;8.40;99.90;;;;;;5075499;28;20092;-75
2021/12/16 11:28:49;;;;;;;44.20;14.38;;;8.50;99.90;;;;;;5056153;28;20067;-80
2021/12/16 11:31:25;;;;;;;77.57;15.82;;;8.40;99.90;;;;;;5058474;28;20131;-80
2021/12/16 11:33:55;;;;;;;36.03;12.85;;;8.40;99.90;;;;;;5075378;28;20126;-80
2021/12/16 11:36:25;;;;;;;48.55;15.40;;;8.40;99.90;;;;;;5074977;28;20044;-76
2021/12/16 11:39:05;;;;;;;84.18;17.60;;;8.40;99.90;;;;;;5057902;28;20504;-79
2021/12/16 11:41:30;;;;;;;59.17;14.88;;;8.50;99.90;;;;;;5075422;28;20044;-76
2021/12/16 11:44:21;;;;;;;22.58;13.98;;;8.50;99.90;;;;;;5057155;28;20138;-80
2021/12/16 11:46:56;;;;;;;58.17;15.63;;;8.60;99.90;;;;;;5060697;28;20052;-77
2021/12/16 11:49:35;;;;;;;64.00;15.05;;;8.60;99.90;;;;;;5077927;28;20497;-77
2021/12/16 11:52:24;;;;;;;44.95;14.23;;;8.60;99.90;;;;;;5051777;28;20059;-78
2021/12/16 11:54:53;;;;;;;47.90;15.95;;;8.70;99.90;;;;;;5056077;28;20090;-80
2021/12/16 11:57:47;;;;;;;33.65;15.15;;;8.70;99.90;;;;;;5055335;28;20134;-80
2021/12/16 12:00:19;;;;;;;30.20;15.05;;;8.70;99.90;;;;;;5055732;28;20105;-77
2021/12/16 12:02:50;;;;;;;51.00;16.75;;;8.80;99.90;;;;;;5057231;28;20075;-80
2021/12/16 12:05:22;;;;;;;67.40;14.32;;;8.80;99.90;;;;;;5058196;28;20518;-80
2021/12/16 12:08:08;;;;;;;22.30;12.88;;;8.80;99.90;;;;;;5058268;28;20090;-78
2021/12/16 12:10:46;;;;;;;23.95;13.50;;;8.80;99.90;;;;;;5055751;28;20157;-80
2021/12/16 12:13:24;;;;;;;31.92;13.50;;;8.80;99.90;;;;;;5058038;28;20641;-78
2021/12/16 12:16:18;;;;;;;28.20;12.10;;;8.90;99.90;;;;;;5077228;28;20058;-75
2021/12/16 12:18:58;;;;;;;23.23;12.13;;;8.80;99.90;;;;;;5061564;28;20066;-80
2021/12/16 12:21:45;;;;;;;36.10;13.93;;;8.80;99.90;;;;;;5041682;28;20060;-76
2021/12/16 12:24:38;;;;;;;28.33;14.43;;;8.80;99.90;;;;;;5069909;28;20040;-76
2021/12/16 12:27:09;;;;;;;;;;;8.80;99.90;;;;;;5054606;28;20049;-78
2021/12/16 12:29:43;;;;;;;41.65;12.27;;;8.80;99.90;;;;;;5065073;28;19927;-79
2021/12/16 12:32:45;;;;;;;54.72;13.68;;;8.80;99.90;;;;;;5073542;28;20042;-80
2021/12/16 12:35:22;;;;;;;50.70;14.53;;;8.80;99.90;;;;;;5073137;28;20045;-79
2021/12/16 12:37:52;;;;;;;92.32;17.15;;;8.90;99.90;;;;;;5073922;28;20290;-79
2021/12/16 12:40:35;;;;;;;51.10;13.20;;;8.90;99.90;;;;;;5073427;28;20404;-79
2021/12/16 12:43:04;;;;;;;72.28;16.70;;;8.90;99.90;;;;;;5057358;28;20506;-78
2021/12/16 12:45:34;;;;;;;73.15;16.13;;;8.90;99.90;;;;;;5073068;28;20079;-76
2021/12/16 12:48:04;;;;;;;101.47;19.13;;;8.90;99.90;;;;;;5057155;28;20048;-80
2021/12/16 12:50:38;;;;;;;82.07;17.27;;;8.90;99.90;;;;;;5056042;28;20054;-79
2021/12/16 12:53:19;;;;;;;41.80;14.23;;;9.00;99.90;;;;;;5070653;28;20047;-79
2021/12/16 12:55:46;;;;;;;50.42;13.93;;;9.00;99.90;;;;;;5073229;28;20090;-79
2021/12/16 12:58:20;;;;;;;64.18;16.80;;;9.00;99.90;;;;;;5073755;28;20059;-79
2021/12/16 13:00:59;;;;;;;117.75;20.77;;;9.00;99.90;;;;;;5047975;28;20052;-76
2021/12/16 13:03:39;;;;;;;56.17;17.38;;;9.00;99.90;;;;;;5056282;28;20040;-79
2021/12/16 13:06:11;;;;;;;88.53;17.33;;;9.00;99.90;;;;;;5072421;28;20395;-79
2021/12/16 13:08:40;;;;;;;106.95;17.17;;;9.00;99.90;;;;;;5056683;28;20036;-79
2021/12/16 13:11:12;;;;;;;45.00;13.45;;;9.00;99.90;;;;;;5071455;28;20054;-79
2021/12/16 13:14:06;;;;;;;52.13;13.10;;;9.00;99.90;;;;;;5056743;28;20044;-83
2021/12/16 13:16:53;;;;;;;71.82;14.15;;;9.00;99.90;;;;;;5072996;28;20488;-80
2021/12/16 13:26:01;;;;;;;68.95;14.85;;;9.00;99.90;;;;;;5020269;28;20052;-78
2021/12/16 13:28:34;;;;;;;56.53;13.05;;;9.10;99.90;;;;;;5061374;28;20048;-79
2021/12/16 13:31:03;;;;;;;31.40;10.82;;;9.10;99.90;;;;;;5072806;28;20043;-76
2021/12/16 13:33:43;;;;;;;42.08;13.27;;;9.10;99.90;;;;;;5073072;28;20546;-77
2021/12/16 13:36:26;;;;;;;40.75;11.30;;;9.10;99.90;;;;;;5055992;28;20127;-80
2021/12/16 13:38:54;;;;;;;49.85;12.57;;;9.00;99.90;;;;;;5055351;28;20047;-79
2021/12/16 13:41:24;;;;;;;53.22;11.98;;;9.00;99.90;;;;;;5054742;28;20492;-76
2021/12/16 13:44:03;;;;;;;83.90;13.57;;;9.00;99.90;;;;;;5055860;28;20044;-80
2021/12/16 13:46:42;;;;;;;57.40;12.77;;;9.00;99.90;;;;;;5072823;28;20508;-77
2021/12/16 14:05:53;;;;;;;46.38;13.23;;;8.90;99.90;;;;;;5086803;28;20055;-80
2021/12/16 14:08:42;;;;;;;29.30;11.45;;;8.90;99.90;;;;;;5059139;28;20126;-79
2021/12/16 14:14:22;;;;;;;35.92;13.25;;;8.90;99.90;;;;;;5092837;28;20051;-79
2021/12/16 14:25:24;;;;;;;67.35;14.55;;;8.80;99.90;;;;;;5087879;28;20037;-76
2021/12/16 14:41:09;;;;;;;24.77;9.82;;;8.80;99.90;;;;;;5092030;28;20055;-76
2021/12/16 14:43:40;;;;;;;29.27;11.27;;;8.80;99.90;;;;;;5092336;28;20039;-77
2021/12/16 14:46:09;;;;;;;28.23;10.30;;;8.80;99.90;;;;;;5088132;28;20407;-76
2021/12/16 14:48:35;;;;;;;25.17;9.73;;;8.80;99.90;;;;;;5071887;28;20076;-76
2021/12/16 14:51:13;;;;;;;30.25;10.30;;;8.80;99.90;;;;;;5072406;28;20049;-77
2021/12/16 14:53:43;;;;;;;56.35;12.27;;;8.80;99.90;;;;;;5069910;28;20040;-79
2021/12/16 14:56:17;;;;;;;31.45;11.18;;;8.80;99.90;;;;;;5075878;28;20048;-79
2021/12/16 14:58:48;;;;;;;38.67;11.05;;;8.80;99.90;;;;;;5054331;28;20439;-78
2021/12/16 15:01:20;;;;;;;40.60;10.43;;;8.80;99.90;;;;;;5058605;28;20165;-78
2021/12/16 15:03:47;;;;;;;70.22;13.75;;;8.80;99.90;;;;;;5075345;28;20131;-79
2021/12/16 15:06:19;;;;;;;36.25;10.77;;;8.80;99.90;;;;;;5057300;28;20051;-80
2021/12/16 15:09:05;;;;;;;50.30;13.77;;;8.80;99.90;;;;;;5075106;28;20036;-78
2021/12/16 15:11:47;;;;;;;65.72;13.55;;;8.80;99.90;;;;;;5058345;28;20044;-78
2021/12/16 15:15:00;;;;;;;46.08;12.98;;;8.80;99.90;;;;;;5074316;28;20097;-78
2021/12/16 15:35:46;;;;;;;45.03;13.90;;;8.70;99.90;;;;;;5073791;28;20073;-80
2021/12/16 15:37:29;;;;;;;53.40;13.45;;;8.70;99.90;;;;;;5069865;28;20408;-81
2021/12/16 15:45:26;;;;;;;38.53;14.30;;;8.70;99.90;;;;;;5076912;28;20127;-79
2021/12/16 15:47:59;;;;;;;43.50;14.07;;;8.70;99.90;;;;;;5037596;28;20048;-80
2021/12/16 15:50:33;;;;;;;121.20;20.35;;;8.70;99.90;;;;;;5046332;28;20480;-78
2021/12/16 15:52:59;;;;;;;34.05;13.27;;;8.70;99.90;;;;;;5050354;28;20517;-78
2021/12/16 15:55:32;;;;;;;90.65;15.27;;;8.60;99.90;;;;;;5073470;28;20042;-76
2021/12/16 15:58:13;;;;;;;58.78;12.45;;;8.60;99.90;;;;;;5057289;28;20044;-77
2021/12/16 16:00:42;;;;;;;49.97;13.23;;;8.60;99.90;;;;;;5071386;28;20048;-77
2021/12/16 16:03:11;;;;;;;44.38;14.38;;;8.50;99.90;;;;;;5074391;28;20051;-77
2021/12/16 16:05:44;;;;;;;43.92;13.25;;;8.50;99.90;;;;;;5056938;28;20040;-77
2021/12/16 16:08:12;;;;;;;45.45;12.95;;;8.50;99.90;;;;;;5057573;28;20135;-77
2021/12/16 16:10:45;;;;;;;34.70;12.18;;;8.40;99.90;;;;;;5056344;28;20059;-76
2021/12/16 16:13:25;;;;;;;36.80;12.88;;;8.50;99.90;;;;;;5057953;28;20128;-78
2021/12/16 16:15:55;;;;;;;35.65;11.73;;;8.40;99.90;;;;;;5076131;28;20379;-78
2021/12/16 16:21:08;;;;;;;95.63;14.77;;;8.40;99.90;;;;;;5071082;28;20075;-77
2021/12/16 16:23:37;;;;;;;53.17;12.32;;;8.40;99.90;;;;;;5046015;28;20040;-78